Time,TemperatureF,DewpointF,PressureIn,WindDirection,WindDirectionDegrees,WindSpeedMPH,WindSpeedGustMPH,Humidity,HourlyPrecipIn,Conditions,Clouds,dailyrainin,SoftwareType,DateUTC
2013-03-13 00:00:00,56.1,39.5,30.11,North,0,3.3,3.3,53,0.00,,,0.00,tws,2013-03-13 07:00:00,
2013-03-13 00:10:00,55.8,39.5,30.11,NW,315,4.4,6.1,54,0.00,,,0.00,tws,2013-03-13 07:10:00,
2013-03-13 00:20:00,55.6,39.4,30.11,NW,315,3.4,4.0,54,0.00,,,0.00,tws,2013-03-13 07:20:00,
2013-03-13 00:30:00,55.4,39.2,30.11,NW,315,3.0,3.5,54,0.00,,,0.00,tws,2013-03-13 07:30:00,
2013-03-13 00:40:00,55.1,38.8,30.11,South,180,1.5,4.4,53,0.00,,,0.00,tws,2013-03-13 07:40:00,
2013-03-13 00:50:00,54.7,38.6,30.12,North,0,1.1,1.8,54,0.00,,,0.00,tws,2013-03-13 07:50:00,
2013-03-13 01:00:00,54.2,38.5,30.12,NW,315,1.8,2.6,55,0.00,,,0.00,tws,2013-03-13 08:00:00,
2013-03-13 01:10:00,53.7,38.5,30.12,North,0,2.7,3.9,56,0.00,,,0.00,tws,2013-03-13 08:10:00,
2013-03-13 01:20:00,53.2,38.3,30.12,NW,315,3.2,4.3,56,0.00,,,0.00,tws,2013-03-13 08:20:00,
2013-03-13 01:30:00,52.8,38.0,30.12,NW,315,3.1,4.2,56,0.00,,,0.00,tws,2013-03-13 08:30:00,
2013-03-13 01:40:00,52.6,37.9,30.12,WNW,292,3.5,4.1,56,0.00,,,0.00,tws,2013-03-13 08:40:00,
2013-03-13 01:50:00,52.6,37.8,30.12,WNW,292,3.5,4.2,56,0.00,,,0.00,tws,2013-03-13 08:50:00,
2013-03-13 02:00:00,52.8,37.7,30.12,NW,315,3.3,3.9,56,0.00,,,0.00,tws,2013-03-13 09:00:00,
2013-03-13 02:10:00,52.8,37.6,30.12,WNW,292,2.9,3.7,55,0.00,,,0.00,tws,2013-03-13 09:10:00,
2013-03-13 02:20:00,52.7,37.6,30.11,NW,315,3.1,3.8,56,0.00,,,0.00,tws,2013-03-13 09:20:00,
2013-03-13 02:30:00,52.6,37.5,30.10,NW,315,3.5,3.8,56,0.00,,,0.00,tws,2013-03-13 09:30:00,
2013-03-13 02:40:00,52.7,37.7,30.11,NNW,337,2.6,3.5,56,0.00,,,0.00,tws,2013-03-13 09:40:00,
2013-03-13 02:50:00,52.4,37.4,30.10,North,0,1.4,3.0,56,0.00,,,0.00,tws,2013-03-13 09:50:00,
2013-03-13 03:00:00,52.1,37.2,30.10,NW,315,3.1,3.3,56,0.00,,,0.00,tws,2013-03-13 10:00:00,
2013-03-13 03:10:00,51.9,36.9,30.10,NW,315,4.3,4.8,56,0.00,,,0.00,tws,2013-03-13 10:10:00,
2013-03-13 03:20:00,51.8,36.5,30.10,NNW,337,3.9,4.7,55,0.00,,,0.00,tws,2013-03-13 10:20:00,
2013-03-13 03:30:00,51.6,36.3,30.11,NE,45,2.8,4.3,55,0.00,,,0.00,tws,2013-03-13 10:30:00,
2013-03-13 03:40:00,51.5,36.2,30.10,NW,315,0.8,1.9,55,0.00,,,0.00,tws,2013-03-13 10:40:00,
2013-03-13 03:50:00,51.1,36.0,30.10,NNW,337,2.0,2.6,55,0.00,,,0.00,tws,2013-03-13 10:50:00,
2013-03-13 04:00:00,50.7,35.9,30.10,NNW,337,3.2,3.6,56,0.00,,,0.00,tws,2013-03-13 11:00:00,
2013-03-13 04:10:00,50.3,35.8,30.10,NW,315,4.7,5.6,57,0.00,,,0.00,tws,2013-03-13 11:10:00,
2013-03-13 04:20:00,50.2,35.7,30.11,WNW,292,3.5,5.0,57,0.00,,,0.00,tws,2013-03-13 11:20:00,
2013-03-13 04:30:00,50.1,35.7,30.11,NW,315,3.5,4.0,57,0.00,,,0.00,tws,2013-03-13 11:30:00,
2013-03-13 04:40:00,49.9,35.6,30.11,NNW,337,3.3,4.5,57,0.00,,,0.00,tws,2013-03-13 11:40:00,
2013-03-13 04:50:00,49.7,35.5,30.11,NW,315,4.2,5.0,57,0.00,,,0.00,tws,2013-03-13 11:50:00,
2013-03-13 05:00:00,49.7,35.5,30.12,NW,315,4.3,4.7,57,0.00,,,0.00,tws,2013-03-13 12:00:00,
2013-03-13 05:10:00,49.6,35.5,30.12,NNW,337,3.2,4.5,58,0.00,,,0.00,tws,2013-03-13 12:10:00,
2013-03-13 05:20:00,49.5,35.5,30.12,NW,315,4.5,5.3,58,0.00,,,0.00,tws,2013-03-13 12:20:00,
2013-03-13 05:30:00,49.3,35.6,30.12,NW,315,4.0,4.8,58,0.00,,,0.00,tws,2013-03-13 12:30:00,
2013-03-13 05:40:00,49.0,35.2,30.12,NW,315,2.8,3.9,58,0.00,,,0.00,tws,2013-03-13 12:40:00,
2013-03-13 05:50:00,48.7,34.9,30.12,NW,315,5.2,5.9,58,0.00,,,0.00,tws,2013-03-13 12:50:00,
2013-03-13 06:00:00,48.8,34.8,30.12,NNW,337,5.6,6.7,58,0.00,,,0.00,tws,2013-03-13 13:00:00,
2013-03-13 06:10:00,49.6,35.1,30.12,North,0,3.5,4.6,57,0.00,,,0.00,tws,2013-03-13 13:10:00,
2013-03-13 06:20:00,50.0,35.4,30.13,NNE,22,3.5,3.9,56,0.00,,,0.00,tws,2013-03-13 13:20:00,
2013-03-13 06:30:00,49.9,35.3,30.13,NNW,337,3.1,4.2,56,0.00,,,0.00,tws,2013-03-13 13:30:00,
2013-03-13 06:40:00,49.7,35.0,30.13,NW,315,4.1,5.3,56,0.00,,,0.00,tws,2013-03-13 13:40:00,
2013-03-13 06:50:00,49.5,35.1,30.14,NW,315,5.5,6.7,57,0.00,,,0.00,tws,2013-03-13 13:50:00,
2013-03-13 07:00:00,49.4,35.1,30.14,NNW,337,4.7,5.5,57,0.00,,,0.00,tws,2013-03-13 14:00:00,
2013-03-13 07:10:00,49.4,35.2,30.14,NW,315,4.2,5.0,57,0.00,,,0.00,tws,2013-03-13 14:10:00,
2013-03-13 07:20:00,49.8,35.5,30.14,NNW,337,3.0,3.9,57,0.00,,,0.00,tws,2013-03-13 14:20:00,
2013-03-13 07:30:00,50.6,36.2,30.15,NNW,337,3.0,3.7,57,0.00,,,0.00,tws,2013-03-13 14:30:00,
2013-03-13 07:40:00,51.3,36.7,30.15,NE,45,4.1,5.2,57,0.00,,,0.00,tws,2013-03-13 14:40:00,
2013-03-13 07:50:00,51.8,37.3,30.15,NE,45,3.8,5.0,57,0.00,,,0.00,tws,2013-03-13 14:50:00,
2013-03-13 08:00:00,52.3,37.9,30.15,NNW,337,2.9,3.3,57,0.00,,,0.00,tws,2013-03-13 15:00:00,
2013-03-13 08:10:00,53.2,38.8,30.15,North,0,3.1,3.4,57,0.00,,,0.00,tws,2013-03-13 15:10:00,
2013-03-13 08:20:00,54.8,39.6,30.16,NW,315,3.3,4.5,56,0.00,,,0.00,tws,2013-03-13 15:20:00,
2013-03-13 08:30:00,56.9,40.9,30.16,NNE,22,3.7,4.8,54,0.00,,,0.00,tws,2013-03-13 15:30:00,
2013-03-13 08:40:00,60.7,42.4,30.16,NNW,337,3.5,4.9,50,0.00,,,0.00,tws,2013-03-13 15:40:00,
2013-03-13 08:50:00,64.1,43.5,30.16,SW,225,3.0,4.0,46,0.00,,,0.00,tws,2013-03-13 15:50:00,
2013-03-13 09:00:00,67.2,44.3,30.17,NW,315,2.5,3.7,43,0.00,,,0.00,tws,2013-03-13 16:00:00,
2013-03-13 09:10:00,69.9,44.0,30.17,NNW,337,5.3,6.9,38,0.00,,,0.00,tws,2013-03-13 16:10:00,
2013-03-13 09:20:00,72.1,43.3,30.17,NW,315,4.9,6.6,35,0.00,,,0.00,tws,2013-03-13 16:20:00,
2013-03-13 09:30:00,73.7,42.9,30.17,NW,315,3.9,5.6,32,0.00,,,0.00,tws,2013-03-13 16:30:00,
2013-03-13 09:40:00,74.2,41.4,30.17,NNW,337,5.7,6.9,30,0.00,,,0.00,tws,2013-03-13 16:40:00,
2013-03-13 09:50:00,74.4,41.4,30.17,North,0,5.4,8.5,30,0.00,,,0.00,tws,2013-03-13 16:50:00,
2013-03-13 10:00:00,75.3,42.1,30.17,NW,315,3.8,4.8,30,0.00,,,0.00,tws,2013-03-13 17:00:00,
2013-03-13 10:10:00,76.1,42.3,30.18,North,0,4.1,5.1,29,0.00,,,0.00,tws,2013-03-13 17:10:00,
2013-03-13 10:20:00,76.7,42.1,30.18,NE,45,4.0,5.4,28,0.00,,,0.00,tws,2013-03-13 17:20:00,
2013-03-13 10:30:00,77.5,41.9,30.17,NNW,337,3.3,4.8,27,0.00,,,0.00,tws,2013-03-13 17:30:00,
2013-03-13 10:40:00,78.5,41.7,30.16,North,0,3.1,4.2,26,0.00,,,0.00,tws,2013-03-13 17:40:00,
2013-03-13 10:50:00,79.0,41.9,30.17,NNW,337,3.1,4.2,26,0.00,,,0.00,tws,2013-03-13 17:50:00,
2013-03-13 11:00:00,79.5,41.7,30.17,NW,315,2.8,4.4,25,0.00,,,0.00,tws,2013-03-13 18:00:00,
2013-03-13 11:10:00,80.2,41.7,30.16,North,0,2.2,3.3,25,0.00,,,0.00,tws,2013-03-13 18:10:00,
2013-03-13 11:20:00,80.8,39.8,30.17,NW,315,1.9,3.3,22,0.00,,,0.00,tws,2013-03-13 18:20:00,
2013-03-13 11:30:00,80.9,38.4,30.17,WSW,247,3.3,4.3,21,0.00,,,0.00,tws,2013-03-13 18:30:00,
2013-03-13 11:40:00,81.2,38.4,30.16,SE,135,3.4,4.8,21,0.00,,,0.00,tws,2013-03-13 18:40:00,
2013-03-13 11:50:00,81.9,41.3,30.16,ESE,112,4.2,5.0,23,0.00,,,0.00,tws,2013-03-13 18:50:00,
2013-03-13 12:00:00,82.9,41.8,30.16,South,180,3.6,4.7,22,0.00,,,0.00,tws,2013-03-13 19:00:00,
2013-03-13 12:10:00,84.0,42.2,30.15,WNW,292,3.0,4.7,22,0.00,,,0.00,tws,2013-03-13 19:10:00,
2013-03-13 12:20:00,84.7,41.0,30.15,West,270,4.4,5.9,20,0.00,,,0.00,tws,2013-03-13 19:20:00,
2013-03-13 12:30:00,84.3,39.9,30.15,South,180,3.1,4.9,20,0.00,,,0.00,tws,2013-03-13 19:30:00,
2013-03-13 12:40:00,84.0,40.2,30.15,South,180,4.6,7.7,20,0.00,,,0.00,tws,2013-03-13 19:40:00,
2013-03-13 12:50:00,83.7,39.6,30.14,SE,135,4.0,5.9,20,0.00,,,0.00,tws,2013-03-13 19:50:00,
2013-03-13 13:00:00,83.6,40.3,30.14,SW,225,3.5,4.3,21,0.00,,,0.00,tws,2013-03-13 20:00:00,
2013-03-13 13:10:00,84.0,39.6,30.13,SE,135,4.1,5.7,20,0.00,,,0.00,tws,2013-03-13 20:10:00,
2013-03-13 13:20:00,84.2,39.7,30.12,SW,225,4.4,7.0,20,0.00,,,0.00,tws,2013-03-13 20:20:00,
2013-03-13 13:30:00,84.4,38.4,30.12,SE,135,3.9,6.4,19,0.00,,,0.00,tws,2013-03-13 20:30:00,
2013-03-13 13:40:00,84.5,38.4,30.12,South,180,4.6,6.2,19,0.00,,,0.00,tws,2013-03-13 20:40:00,
2013-03-13 13:50:00,84.7,38.1,30.11,SW,225,4.1,5.4,18,0.00,,,0.00,tws,2013-03-13 20:50:00,
2013-03-13 14:00:00,85.1,38.8,30.10,SE,135,3.4,4.6,19,0.00,,,0.00,tws,2013-03-13 21:00:00,
2013-03-13 14:10:00,85.5,39.1,30.10,NNE,22,4.1,5.9,18,0.00,,,0.00,tws,2013-03-13 21:10:00,
2013-03-13 14:20:00,85.7,39.2,30.10,East,90,2.6,4.2,18,0.00,,,0.00,tws,2013-03-13 21:20:00,
2013-03-13 14:30:00,85.9,39.8,30.09,NNW,337,2.8,5.9,19,0.00,,,0.00,tws,2013-03-13 21:30:00,
2013-03-13 14:40:00,86.4,39.8,30.10,East,90,3.5,6.8,18,0.00,,,0.00,tws,2013-03-13 21:40:00,
2013-03-13 14:50:00,86.5,40.2,30.09,WSW,247,6.0,9.3,19,0.00,,,0.00,tws,2013-03-13 21:50:00,
2013-03-13 15:00:00,86.6,39.8,30.09,WNW,292,5.3,9.3,18,0.00,,,0.00,tws,2013-03-13 22:00:00,
2013-03-13 15:10:00,86.7,39.9,30.09,NW,315,4.1,5.6,18,0.00,,,0.00,tws,2013-03-13 22:10:00,
2013-03-13 15:20:00,87.2,40.2,30.08,SSW,202,3.3,4.7,18,0.00,,,0.00,tws,2013-03-13 22:20:00,
2013-03-13 15:30:00,87.8,39.6,30.09,SE,135,4.0,8.2,18,0.00,,,0.00,tws,2013-03-13 22:30:00,
2013-03-13 15:40:00,88.1,40.0,30.08,South,180,5.1,7.6,18,0.00,,,0.00,tws,2013-03-13 22:40:00,
2013-03-13 15:50:00,88.3,39.3,30.08,SW,225,6.6,8.3,17,0.00,,,0.00,tws,2013-03-13 22:50:00,
2013-03-13 16:00:00,88.3,39.5,30.08,South,180,6.2,9.6,17,0.00,,,0.00,tws,2013-03-13 23:00:00,
2013-03-13 16:10:00,88.9,39.2,30.07,South,180,6.0,8.5,17,0.00,,,0.00,tws,2013-03-13 23:10:00,
2013-03-13 16:20:00,89.4,39.3,30.07,South,180,5.8,7.0,16,0.00,,,0.00,tws,2013-03-13 23:20:00,
2013-03-13 16:30:00,89.8,39.1,30.07,West,270,6.8,10.3,16,0.00,,,0.00,tws,2013-03-13 23:30:00,
2013-03-13 16:40:00,89.3,38.8,30.07,South,180,6.6,9.3,16,0.00,,,0.00,tws,2013-03-13 23:40:00,
2013-03-13 16:50:00,87.9,37.7,30.07,South,180,5.8,9.0,16,0.00,,,0.00,tws,2013-03-13 23:50:00,
2013-03-13 17:00:00,86.3,36.8,30.07,SW,225,7.4,9.0,16,0.00,,,0.00,tws,2013-03-14 00:00:00,
2013-03-13 17:10:00,84.7,37.4,30.07,SW,225,6.6,8.3,18,0.00,,,0.00,tws,2013-03-14 00:10:00,
2013-03-13 17:20:00,83.7,36.9,30.07,SW,225,7.5,9.6,18,0.00,,,0.00,tws,2013-03-14 00:20:00,
2013-03-13 17:30:00,82.9,36.8,30.06,SW,225,6.8,8.8,18,0.00,,,0.00,tws,2013-03-14 00:30:00,
2013-03-13 17:40:00,82.3,36.9,30.07,WSW,247,6.3,9.7,19,0.00,,,0.00,tws,2013-03-14 00:40:00,
2013-03-13 17:50:00,81.9,37.3,30.07,South,180,6.4,8.1,19,0.00,,,0.00,tws,2013-03-14 00:50:00,
2013-03-13 18:00:00,81.5,36.8,30.07,SSW,202,5.7,7.3,19,0.00,,,0.00,tws,2013-03-14 01:00:00,
2013-03-13 18:10:00,81.0,36.8,30.08,West,270,5.5,7.4,20,0.00,,,0.00,tws,2013-03-14 01:10:00,
2013-03-13 18:20:00,80.4,36.8,30.07,WNW,292,5.4,6.4,20,0.00,,,0.00,tws,2013-03-14 01:20:00,
2013-03-13 18:30:00,79.7,36.3,30.08,SW,225,4.0,4.8,20,0.00,,,0.00,tws,2013-03-14 01:30:00,
2013-03-13 18:40:00,78.8,36.9,30.07,West,270,3.8,4.7,21,0.00,,,0.00,tws,2013-03-14 01:40:00,
2013-03-13 18:50:00,78.0,36.6,30.07,NW,315,3.9,5.6,22,0.00,,,0.00,tws,2013-03-14 01:50:00,
2013-03-13 19:00:00,77.1,36.8,30.08,West,270,3.2,3.9,22,0.00,,,0.00,tws,2013-03-14 02:00:00,
2013-03-13 19:10:00,76.2,37.2,30.08,West,270,2.6,3.4,23,0.00,,,0.00,tws,2013-03-14 02:10:00,
2013-03-13 19:20:00,75.2,37.3,30.08,West,270,3.4,4.0,24,0.00,,,0.00,tws,2013-03-14 02:20:00,
2013-03-13 19:30:00,74.3,36.3,30.09,WNW,292,3.9,5.0,24,0.00,,,0.00,tws,2013-03-14 02:30:00,
2013-03-13 19:40:00,73.4,36.2,30.09,WSW,247,3.7,4.2,25,0.00,,,0.00,tws,2013-03-14 02:40:00,
2013-03-13 19:50:00,72.7,35.2,30.08,NW,315,4.8,5.6,25,0.00,,,0.00,tws,2013-03-14 02:50:00,
2013-03-13 20:00:00,72.3,34.7,30.09,West,270,5.1,6.1,24,0.00,,,0.00,tws,2013-03-14 03:00:00,
2013-03-13 20:10:00,72.0,34.4,30.09,West,270,6.1,7.6,24,0.00,,,0.00,tws,2013-03-14 03:10:00,
2013-03-13 20:20:00,71.8,34.2,30.10,NW,315,6.0,6.8,24,0.00,,,0.00,tws,2013-03-14 03:20:00,
2013-03-13 20:30:00,71.3,34.3,30.10,WNW,292,6.1,7.0,25,0.00,,,0.00,tws,2013-03-14 03:30:00,
2013-03-13 20:40:00,70.9,34.3,30.10,NW,315,6.2,7.7,25,0.00,,,0.00,tws,2013-03-14 03:40:00,
2013-03-13 20:50:00,70.5,34.4,30.10,NW,315,5.9,6.7,26,0.00,,,0.00,tws,2013-03-14 03:50:00,
2013-03-13 21:00:00,70.1,34.4,30.10,NW,315,6.0,6.8,26,0.00,,,0.00,tws,2013-03-14 04:00:00,
2013-03-13 21:10:00,70.0,34.3,30.11,West,270,5.2,7.7,26,0.00,,,0.00,tws,2013-03-14 04:10:00,
2013-03-13 21:20:00,69.8,34.3,30.11,NW,315,6.4,8.3,26,0.00,,,0.00,tws,2013-03-14 04:20:00,
2013-03-13 21:30:00,69.4,34.1,30.11,North,0,4.7,6.7,26,0.00,,,0.00,tws,2013-03-14 04:30:00,
2013-03-13 21:40:00,68.9,34.9,30.11,North,0,3.6,4.2,28,0.00,,,0.00,tws,2013-03-14 04:40:00,
2013-03-13 21:50:00,67.9,34.6,30.11,NNW,337,3.6,4.6,28,0.00,,,0.00,tws,2013-03-14 04:50:00,
2013-03-13 22:00:00,67.0,34.2,30.12,NW,315,4.7,6.1,29,0.00,,,0.00,tws,2013-03-14 05:00:00,
2013-03-13 22:10:00,66.3,33.7,30.11,NW,315,3.7,4.7,29,0.00,,,0.00,tws,2013-03-14 05:10:00,
2013-03-13 22:20:00,65.9,32.8,30.12,North,0,3.0,3.6,28,0.00,,,0.00,tws,2013-03-14 05:20:00,
2013-03-13 22:30:00,65.6,32.5,30.12,North,0,2.8,3.1,28,0.00,,,0.00,tws,2013-03-14 05:30:00,
2013-03-13 22:40:00,65.3,32.8,30.12,NNW,337,2.8,3.6,29,0.00,,,0.00,tws,2013-03-14 05:40:00,
2013-03-13 22:50:00,64.9,32.6,30.12,NNW,337,1.9,2.8,29,0.00,,,0.00,tws,2013-03-14 05:50:00,
2013-03-13 23:00:00,64.4,33.0,30.12,NE,45,1.9,2.7,30,0.00,,,0.00,tws,2013-03-14 06:00:00,
2013-03-13 23:10:00,63.6,33.1,30.12,NE,45,1.5,2.1,31,0.00,,,0.00,tws,2013-03-14 06:10:00,
2013-03-13 23:20:00,62.8,33.0,30.13,NNW,337,2.3,2.5,32,0.00,,,0.00,tws,2013-03-14 06:20:00,
2013-03-13 23:30:00,62.0,33.2,30.12,NW,315,3.4,3.7,33,0.00,,,0.00,tws,2013-03-14 06:30:00,
2013-03-13 23:40:00,61.4,33.6,30.12,NW,315,3.4,3.8,34,0.00,,,0.00,tws,2013-03-14 06:40:00,
2013-03-13 23:50:00,60.9,33.2,30.12,North,0,2.5,3.2,34,0.00,,,0.00,tws,2013-03-14 06:50:00,